createdAt,value
2023-02-07T00:01:42.556Z,8.35
2023-02-07T00:04:11.395Z,7.30
2023-02-07T00:06:39.705Z,5.87
2023-02-07T00:09:09.917Z,6.88
2023-02-07T00:11:41.802Z,5.63
2023-02-07T00:14:14.080Z,7.65
2023-02-07T00:16:42.994Z,8.00
2023-02-07T00:19:11.815Z,5.05
2023-02-07T00:21:40.074Z,5.43
2023-02-07T00:24:08.844Z,5.80
2023-02-07T00:26:39.762Z,4.10
2023-02-07T00:29:08.642Z,4.15
2023-02-07T00:31:39.233Z,5.20
2023-02-07T00:34:09.595Z,7.00
2023-02-07T00:36:39.240Z,6.03
2023-02-07T00:39:10.612Z,6.50
2023-02-07T00:41:39.550Z,7.32
2023-02-07T00:44:08.578Z,6.47
2023-02-07T00:46:39.003Z,5.10
2023-02-07T00:49:07.689Z,6.30
2023-02-07T00:51:35.854Z,4.38
2023-02-07T00:54:04.525Z,6.67
2023-02-07T00:56:36.283Z,6.57
2023-02-07T00:59:05.073Z,3.90
2023-02-07T01:01:33.476Z,5.38
2023-02-07T01:04:03.916Z,4.22
2023-02-07T01:06:34.324Z,5.15
2023-02-07T01:09:04.202Z,4.53
2023-02-07T01:11:34.765Z,3.47
2023-02-07T01:14:04.051Z,8.25
2023-02-07T01:16:34.508Z,7.60
2023-02-07T01:19:06.601Z,5.25
2023-02-07T01:21:35.113Z,7.10
2023-02-07T01:24:04.379Z,3.60
2023-02-07T01:26:34.698Z,6.03
2023-02-07T01:29:03.982Z,6.90
2023-02-07T01:31:32.362Z,6.90
2023-02-07T01:34:04.258Z,4.88
2023-02-07T01:36:34.908Z,5.68
2023-02-07T01:39:05.028Z,7.18
2023-02-07T01:41:33.351Z,7.32
2023-02-07T01:44:05.311Z,5.07
2023-02-07T01:46:35.395Z,7.65
2023-02-07T01:49:07.753Z,6.00
2023-02-07T01:51:39.253Z,7.95
2023-02-07T01:54:11.336Z,8.57
2023-02-07T01:56:45.009Z,6.45
2023-02-07T01:59:14.182Z,4.78
2023-02-07T02:01:43.420Z,5.20
2023-02-07T02:04:11.697Z,3.03
2023-02-07T02:06:42.368Z,6.90
2023-02-07T02:09:12.909Z,6.78
2023-02-07T02:12:20.421Z,6.53
2023-02-07T02:15:01.201Z,4.53
2023-02-07T02:17:41.176Z,4.93
2023-02-07T02:20:54.098Z,4.25
2023-02-07T02:23:34.640Z,5.72
2023-02-07T02:26:35.863Z,3.95
2023-02-07T02:29:39.762Z,6.72
2023-02-07T02:32:51.357Z,9.48
2023-02-07T02:35:29.059Z,11.57
2023-02-07T02:38:03.917Z,7.18
2023-02-07T02:40:39.367Z,4.95
2023-02-07T02:43:14.225Z,4.93
2023-02-07T02:45:47.725Z,6.65
2023-02-07T02:48:17.138Z,5.55
2023-02-07T02:50:50.019Z,7.20
2023-02-07T02:53:18.628Z,5.30
2023-02-07T02:56:14.488Z,2.90
2023-02-07T02:59:01.035Z,5.18
2023-02-07T03:01:38.976Z,5.70
2023-02-07T03:04:25.767Z,7.93
2023-02-07T03:07:09.159Z,7.22
2023-02-07T03:09:47.116Z,4.63
2023-02-07T03:12:22.734Z,4.82
2023-02-07T03:14:58.837Z,11.00
2023-02-07T03:17:32.064Z,3.15
2023-02-07T03:20:06.425Z,4.32
2023-02-07T03:22:37.965Z,4.10
2023-02-07T03:25:08.896Z,3.30
2023-02-07T03:27:38.999Z,3.63
2023-02-07T03:34:04.694Z,6.53
2023-02-07T03:36:40.114Z,7.43
2023-02-07T03:39:10.748Z,6.20
2023-02-07T03:41:44.170Z,5.38
2023-02-07T03:44:14.656Z,4.60
2023-02-07T03:46:42.933Z,9.98
2023-02-07T03:49:11.959Z,7.85
2023-02-07T03:51:40.138Z,3.80
2023-02-07T03:54:11.193Z,5.30
2023-02-07T03:56:39.803Z,3.83
2023-02-07T03:59:08.437Z,2.67
2023-02-07T04:01:40.881Z,8.85
2023-02-07T04:04:09.641Z,4.32
2023-02-07T04:06:38.351Z,5.65
2023-02-07T04:09:06.878Z,6.25
2023-02-07T04:11:36.444Z,5.70
2023-02-07T04:14:04.913Z,3.92
2023-02-07T04:16:33.798Z,2.58
2023-02-07T04:19:02.812Z,6.43
2023-02-07T04:21:30.978Z,3.63
2023-02-07T04:23:59.854Z,2.47
2023-02-07T04:26:28.020Z,7.15
2023-02-07T04:28:57.956Z,4.97
2023-02-07T04:31:26.164Z,2.95
2023-02-07T04:33:55.252Z,4.38
2023-02-07T04:36:23.934Z,2.08
2023-02-07T04:38:52.452Z,6.50
2023-02-07T04:41:20.622Z,2.78
2023-02-07T04:43:49.108Z,3.90
2023-02-07T04:46:18.942Z,4.60
2023-02-07T04:48:48.452Z,3.15
2023-02-07T04:51:17.302Z,7.97
2023-02-07T04:53:45.778Z,3.80
2023-02-07T04:56:13.977Z,5.10
2023-02-07T04:58:42.417Z,2.97
2023-02-07T05:01:10.935Z,4.15
2023-02-07T05:03:41.255Z,5.28
2023-02-07T05:06:09.753Z,3.53
2023-02-07T05:08:39.083Z,3.65
2023-02-07T05:11:08.539Z,2.28
2023-02-07T05:13:37.040Z,4.32
2023-02-07T05:16:05.712Z,5.70
2023-02-07T05:18:34.575Z,7.00
2023-02-07T05:21:04.151Z,3.17
2023-02-07T05:23:32.944Z,7.18
2023-02-07T05:26:01.124Z,6.57
2023-02-07T05:28:29.782Z,6.70
2023-02-07T05:31:00.821Z,4.63
2023-02-07T05:33:28.426Z,3.83
2023-02-07T05:35:56.596Z,7.13
2023-02-07T05:38:26.502Z,8.67
2023-02-07T05:40:54.792Z,7.25
2023-02-07T05:43:23.254Z,8.32
2023-02-07T05:45:51.677Z,9.77
2023-02-07T05:48:20.294Z,10.43
2023-02-07T05:50:49.173Z,6.43
2023-02-07T05:53:18.130Z,6.97
2023-02-07T05:55:47.652Z,5.97
2023-02-07T05:58:16.222Z,9.63
2023-02-07T06:00:44.509Z,7.10
2023-02-07T06:03:13.011Z,4.50
2023-02-07T06:05:41.598Z,8.52
2023-02-07T06:08:10.931Z,12.50
2023-02-07T06:10:39.164Z,5.90
2023-02-07T06:13:09.016Z,9.10
2023-02-07T06:15:37.817Z,7.18
2023-02-07T06:18:06.528Z,13.45
2023-02-07T06:20:34.729Z,6.57
2023-02-07T06:23:04.220Z,12.88
2023-02-07T06:28:00.818Z,5.43
2023-02-07T06:30:30.974Z,8.90
2023-02-07T06:32:59.538Z,11.40
2023-02-07T06:35:27.734Z,5.13
2023-02-07T06:37:56.163Z,7.43
2023-02-07T06:40:24.708Z,16.88
2023-02-07T06:42:53.227Z,11.25
2023-02-07T06:45:21.484Z,8.15
2023-02-07T06:47:51.391Z,6.55
2023-02-07T06:50:19.941Z,9.57
2023-02-07T06:52:48.409Z,5.32
2023-02-07T06:55:16.786Z,13.23
2023-02-07T06:57:45.232Z,11.63
2023-02-07T07:00:14.597Z,19.92
2023-02-07T07:02:43.403Z,26.90
2023-02-07T07:05:14.059Z,22.48
2023-02-07T07:07:44.836Z,25.73
2023-02-07T07:10:14.103Z,14.43
2023-02-07T07:12:42.692Z,14.45
2023-02-07T07:15:14.178Z,10.20
2023-02-07T07:17:45.945Z,11.80
2023-02-07T07:20:15.940Z,10.32
2023-02-07T07:22:44.587Z,7.90
2023-02-07T07:25:13.559Z,8.97
2023-02-07T07:27:42.725Z,6.15
2023-02-07T07:30:12.499Z,11.82
2023-02-07T07:32:41.218Z,14.18
2023-02-07T07:35:10.172Z,11.07
2023-02-07T07:40:11.401Z,11.25
2023-02-07T07:42:40.022Z,14.48
2023-02-07T07:45:10.236Z,13.93
2023-02-07T07:47:38.775Z,15.73
2023-02-07T07:50:08.513Z,14.95
2023-02-07T07:52:37.605Z,10.80
2023-02-07T07:55:08.307Z,16.58
2023-02-07T07:57:38.049Z,15.88
2023-02-07T08:00:06.913Z,15.20
2023-02-07T08:02:35.790Z,14.98
2023-02-07T08:05:04.001Z,14.68
2023-02-07T08:07:32.771Z,14.13
2023-02-07T08:10:01.423Z,18.85
2023-02-07T08:12:31.658Z,13.48
2023-02-07T08:15:00.007Z,15.82
2023-02-07T08:17:29.148Z,15.90
2023-02-07T08:19:57.891Z,11.77
2023-02-07T08:22:26.765Z,14.32
2023-02-07T08:24:55.030Z,16.42
2023-02-07T08:27:24.867Z,12.95
2023-02-07T08:29:54.896Z,15.30
2023-02-07T08:32:27.267Z,16.00
2023-02-07T08:34:56.006Z,17.70
2023-02-07T08:37:24.577Z,16.48
2023-02-07T08:39:53.064Z,17.42
2023-02-07T08:42:22.206Z,14.57
2023-02-07T08:44:51.318Z,22.25
2023-02-07T08:47:21.188Z,16.80
2023-02-07T08:49:49.414Z,19.88
2023-02-07T08:52:17.852Z,18.92
2023-02-07T08:54:46.021Z,16.88
2023-02-07T08:57:14.499Z,19.40
2023-02-07T08:59:43.584Z,25.63
2023-02-07T09:04:43.375Z,17.92
2023-02-07T09:07:12.769Z,13.02
2023-02-07T09:09:41.224Z,13.10
2023-02-07T09:12:10.546Z,17.23
2023-02-07T09:14:43.750Z,16.30
2023-02-07T09:17:12.559Z,20.00
2023-02-07T09:19:42.448Z,11.70
2023-02-07T09:22:11.243Z,12.30
2023-02-07T09:24:39.740Z,11.40
2023-02-07T09:27:08.658Z,12.13
2023-02-07T09:29:36.888Z,16.48
2023-02-07T09:32:05.912Z,7.13
2023-02-07T09:34:34.829Z,13.13
2023-02-07T09:37:04.651Z,14.00
2023-02-07T09:39:33.603Z,11.75
2023-02-07T09:42:17.707Z,6.90
2023-02-07T09:44:57.495Z,11.52
2023-02-07T09:47:28.715Z,26.05
2023-02-07T09:50:00.704Z,15.77
2023-02-07T09:52:35.015Z,9.70
2023-02-07T09:55:05.618Z,9.85
2023-02-07T09:57:39.345Z,8.80
2023-02-07T10:00:17.068Z,9.73
2023-02-07T10:02:51.388Z,9.52
2023-02-07T10:05:23.391Z,5.82
2023-02-07T10:07:53.664Z,9.70
2023-02-07T10:10:32.842Z,10.48
2023-02-07T10:15:58.521Z,9.23
2023-02-07T10:18:46.192Z,11.88
2023-02-07T10:21:23.892Z,10.15
2023-02-07T10:24:10.312Z,10.07
2023-02-07T10:26:42.601Z,9.10
2023-02-07T10:29:39.367Z,7.60
2023-02-07T10:32:22.945Z,9.45
2023-02-07T10:34:58.373Z,5.15
2023-02-07T10:37:28.691Z,7.78
2023-02-07T10:40:05.625Z,10.73
2023-02-07T10:42:37.698Z,6.55
2023-02-07T10:45:09.099Z,9.45
2023-02-07T10:47:41.087Z,8.00
2023-02-07T10:50:18.625Z,6.53
2023-02-07T10:52:55.947Z,6.85
2023-02-07T10:55:40.978Z,12.30
2023-02-07T10:58:22.737Z,7.80
2023-02-07T11:00:54.072Z,6.40
2023-02-07T11:03:24.129Z,6.05
2023-02-07T11:05:56.636Z,9.35
2023-02-07T11:08:28.014Z,8.00
2023-02-07T11:11:00.035Z,5.82
2023-02-07T11:13:30.554Z,10.07
2023-02-07T11:16:04.336Z,9.90
2023-02-07T11:18:44.960Z,9.32
2023-02-07T11:21:27.169Z,8.93
2023-02-07T11:24:00.168Z,8.63
2023-02-07T11:26:31.837Z,11.82
2023-02-07T11:29:08.137Z,12.30
2023-02-07T11:31:40.510Z,10.05
2023-02-07T11:34:26.092Z,9.98
2023-02-07T11:36:55.090Z,8.18
2023-02-07T11:39:24.831Z,8.25
2023-02-07T11:42:01.795Z,9.45
2023-02-07T11:44:31.987Z,8.68
2023-02-07T11:47:05.949Z,17.60
2023-02-07T11:49:43.771Z,8.25
2023-02-07T11:52:13.402Z,12.23
2023-02-07T11:54:44.296Z,7.55
2023-02-07T11:57:15.911Z,10.95
2023-02-07T11:59:50.217Z,12.68
2023-02-07T12:02:22.338Z,10.55
2023-02-07T12:04:51.022Z,16.77
2023-02-07T12:07:25.742Z,8.63
2023-02-07T12:09:57.207Z,8.65
2023-02-07T12:12:35.473Z,13.75
2023-02-07T12:15:10.757Z,7.93
2023-02-07T12:17:43.736Z,11.60
2023-02-07T12:20:23.561Z,8.02
2023-02-07T12:23:11.629Z,5.68
2023-02-07T12:25:51.986Z,14.10
2023-02-07T12:28:29.661Z,11.82
2023-02-07T12:31:04.085Z,10.30
2023-02-07T12:33:41.990Z,7.40
2023-02-07T12:36:15.718Z,10.18
2023-02-07T12:38:52.081Z,8.93
2023-02-07T12:41:25.314Z,9.32
2023-02-07T12:44:07.033Z,9.27
2023-02-07T12:46:43.766Z,10.65
2023-02-07T12:49:46.348Z,8.80
2023-02-07T12:52:26.297Z,12.70
2023-02-07T12:55:10.239Z,10.18
2023-02-07T12:57:50.067Z,8.68
2023-02-07T13:00:25.945Z,8.55
2023-02-07T13:03:07.903Z,8.38
2023-02-07T13:05:50.838Z,11.00
2023-02-07T13:08:29.942Z,11.98
2023-02-07T13:11:09.285Z,15.98
2023-02-07T13:13:44.665Z,11.57
2023-02-07T13:16:20.083Z,11.15
2023-02-07T13:18:54.653Z,9.25
2023-02-07T13:21:31.602Z,9.20
2023-02-07T13:24:02.866Z,9.23
2023-02-07T13:26:37.379Z,8.70
2023-02-07T13:29:12.798Z,7.93
2023-02-07T13:31:46.840Z,11.00
2023-02-07T13:34:19.412Z,12.40
2023-02-07T13:36:50.056Z,11.68
2023-02-07T13:39:35.491Z,9.43
2023-02-07T13:42:17.114Z,10.63
2023-02-07T13:44:52.822Z,10.82
2023-02-07T13:47:35.285Z,14.13
2023-02-07T13:50:15.204Z,10.98
2023-02-07T13:52:50.610Z,14.45
2023-02-07T13:55:28.857Z,11.48
2023-02-07T13:58:14.963Z,13.85
2023-02-07T14:01:11.511Z,10.52
2023-02-07T14:03:41.548Z,7.55
2023-02-07T14:06:22.704Z,10.32
2023-02-07T14:09:02.718Z,15.05
2023-02-07T14:11:42.160Z,18.25
2023-02-07T14:14:18.052Z,16.67
2023-02-07T14:16:50.431Z,17.63
2023-02-07T14:19:54.885Z,22.13
2023-02-07T14:22:26.864Z,17.30
2023-02-07T14:25:21.851Z,13.32
2023-02-07T14:28:21.217Z,12.15
2023-02-07T14:31:04.431Z,15.45
2023-02-07T14:33:36.170Z,12.38
2023-02-07T14:36:19.754Z,6.85
2023-02-07T14:39:05.088Z,13.00
2023-02-07T14:41:36.860Z,10.20
2023-02-07T14:44:10.231Z,9.75
2023-02-07T14:46:41.972Z,9.40
2023-02-07T14:49:18.205Z,11.43
2023-02-07T14:51:51.464Z,18.30
2023-02-07T14:54:27.330Z,19.40
2023-02-07T14:57:04.263Z,13.18
2023-02-07T14:59:38.059Z,8.55
2023-02-07T15:02:30.779Z,12.07
2023-02-07T15:05:00.066Z,9.93
2023-02-07T15:12:29.030Z,11.15
2023-02-07T15:14:58.118Z,14.25
2023-02-07T15:17:42.604Z,12.75
2023-02-07T15:20:17.548Z,9.40
2023-02-07T15:22:52.000Z,7.85
2023-02-07T15:25:20.344Z,10.43
2023-02-07T15:28:01.249Z,12.02
2023-02-07T15:30:30.291Z,12.35
2023-02-07T15:32:59.433Z,13.90
2023-02-07T15:35:30.017Z,13.77
2023-02-07T15:38:18.989Z,8.65
2023-02-07T15:40:47.391Z,10.40
2023-02-07T15:43:28.544Z,9.98
2023-02-07T15:46:09.258Z,7.68
2023-02-07T15:48:49.941Z,9.82
2023-02-07T15:51:21.471Z,20.55
2023-02-07T15:53:53.475Z,11.80
2023-02-07T15:56:21.897Z,10.52
2023-02-07T15:58:51.735Z,9.63
2023-02-07T16:01:25.213Z,12.68
2023-02-07T16:03:57.997Z,11.23
2023-02-07T16:06:29.200Z,10.93
2023-02-07T16:09:00.954Z,15.70
2023-02-07T16:11:41.269Z,24.05
2023-02-07T16:14:19.506Z,20.02
2023-02-07T16:16:50.469Z,11.77
2023-02-07T16:19:20.983Z,11.48
2023-02-07T16:21:54.758Z,11.25
2023-02-07T16:24:27.766Z,15.75
2023-02-07T16:26:58.532Z,16.58
2023-02-07T16:29:28.150Z,20.10
2023-02-07T16:31:58.774Z,16.05
2023-02-07T16:34:27.385Z,15.40
2023-02-07T16:36:57.309Z,13.50
2023-02-07T16:39:27.614Z,18.13
2023-02-07T16:41:58.301Z,14.82
2023-02-07T16:44:31.381Z,23.80
2023-02-07T16:46:59.740Z,22.25
2023-02-07T16:49:31.330Z,18.98
2023-02-07T16:52:00.440Z,15.38
2023-02-07T16:54:30.594Z,15.82
2023-02-07T16:59:31.504Z,19.83
2023-02-07T17:02:00.313Z,13.88
2023-02-07T17:04:29.088Z,13.48
2023-02-07T17:06:57.441Z,13.57
2023-02-07T17:09:27.256Z,18.77
2023-02-07T17:11:56.934Z,18.42
2023-02-07T17:14:26.102Z,21.00
2023-02-07T17:16:55.058Z,20.73
2023-02-07T17:19:24.550Z,17.48
2023-02-07T17:21:53.662Z,17.75
2023-02-07T17:26:52.954Z,12.32
2023-02-07T17:29:23.435Z,20.48
2023-02-07T17:31:52.555Z,15.82
2023-02-07T17:36:50.859Z,25.52
2023-02-07T17:39:21.102Z,22.40
2023-02-07T17:41:50.281Z,27.63
2023-02-07T17:46:51.530Z,47.67
2023-02-07T17:49:20.380Z,47.63
2023-02-07T17:51:48.776Z,48.05
2023-02-07T17:54:18.329Z,26.17
2023-02-07T17:56:46.952Z,22.67
2023-02-07T17:59:24.063Z,27.45
2023-02-07T18:01:53.860Z,22.92
2023-02-07T18:04:22.896Z,21.95
2023-02-07T18:06:51.158Z,27.23
2023-02-07T18:09:21.043Z,38.17
2023-02-07T18:11:51.133Z,28.30
2023-02-07T18:14:19.708Z,33.17
2023-02-07T18:16:48.473Z,40.58
2023-02-07T18:19:20.644Z,35.35
2023-02-07T18:21:49.497Z,31.50
2023-02-07T18:24:18.227Z,35.17
2023-02-07T18:26:47.424Z,33.20
2023-02-07T18:29:17.098Z,29.52
2023-02-07T18:31:46.125Z,28.90
2023-02-07T18:34:14.437Z,30.38
2023-02-07T18:36:44.593Z,35.17
2023-02-07T18:39:13.740Z,28.00
2023-02-07T18:41:46.195Z,33.50
2023-02-07T18:44:15.100Z,34.75
2023-02-07T18:46:44.122Z,34.38
2023-02-07T18:49:14.839Z,34.67
2023-02-07T18:51:45.167Z,39.50
2023-02-07T18:54:13.686Z,106.38
2023-02-07T18:56:42.415Z,76.30
2023-02-07T18:59:10.935Z,57.60
2023-02-07T19:01:40.286Z,41.63
2023-02-07T19:04:08.990Z,44.58
2023-02-07T19:06:37.693Z,36.53
2023-02-07T19:09:10.446Z,39.63
2023-02-07T19:11:40.009Z,26.00
2023-02-07T19:14:13.841Z,23.40
2023-02-07T19:16:43.402Z,18.65
2023-02-07T19:19:14.699Z,18.40
2023-02-07T19:21:43.518Z,17.80
2023-02-07T19:24:18.948Z,18.70
2023-02-07T19:26:50.316Z,20.58
2023-02-07T19:29:25.226Z,15.68
2023-02-07T19:31:53.915Z,21.50
2023-02-07T19:34:22.175Z,16.98
2023-02-07T19:36:50.819Z,15.77
2023-02-07T19:39:20.938Z,17.63
2023-02-07T19:41:52.245Z,19.90
2023-02-07T19:44:20.550Z,19.38
2023-02-07T19:46:49.297Z,21.33
2023-02-07T19:49:17.713Z,25.67
2023-02-07T19:51:46.378Z,17.55
2023-02-07T19:54:15.622Z,18.70
2023-02-07T19:59:16.103Z,13.20
2023-02-07T20:01:44.750Z,12.47
2023-02-07T20:04:13.002Z,13.97
2023-02-07T20:06:45.864Z,12.30
2023-02-07T20:09:14.519Z,14.80
2023-02-07T20:11:43.300Z,15.43
2023-02-07T20:14:13.077Z,12.23
2023-02-07T20:16:44.480Z,19.92
2023-02-07T20:19:13.394Z,12.52
2023-02-07T20:21:42.245Z,15.02
2023-02-07T20:24:10.550Z,15.52
2023-02-07T20:26:42.587Z,16.08
2023-02-07T20:29:18.543Z,14.85
2023-02-07T20:31:50.764Z,15.05
2023-02-07T20:34:19.913Z,14.52
2023-02-07T20:39:20.826Z,12.55
2023-02-07T20:41:50.197Z,13.18
2023-02-07T20:44:23.137Z,15.73
2023-02-07T20:46:52.892Z,11.90
2023-02-07T20:51:53.998Z,17.52
2023-02-07T20:54:25.961Z,23.50
2023-02-07T20:56:56.320Z,13.15
2023-02-07T20:59:35.604Z,13.25
2023-02-07T21:02:07.075Z,16.05
2023-02-07T21:04:37.469Z,15.70
2023-02-07T21:07:06.577Z,16.27
2023-02-07T21:09:35.074Z,17.13
2023-02-07T21:12:04.258Z,18.67
2023-02-07T21:14:35.036Z,16.40
2023-02-07T21:17:06.482Z,15.43
2023-02-07T21:19:36.758Z,22.77
2023-02-07T21:22:05.797Z,23.35
2023-02-07T21:24:34.517Z,21.38
2023-02-07T21:27:05.196Z,21.08
2023-02-07T21:29:36.508Z,23.67
2023-02-07T21:32:06.268Z,29.05
2023-02-07T21:34:34.806Z,26.77
2023-02-07T21:37:03.734Z,27.50
2023-02-07T21:39:31.956Z,24.13
2023-02-07T21:42:00.402Z,23.80
2023-02-07T21:44:29.410Z,23.83
2023-02-07T21:46:59.251Z,25.38
2023-02-07T21:49:27.588Z,28.80
2023-02-07T21:51:56.072Z,30.05
2023-02-07T21:54:24.277Z,25.23
2023-02-07T21:56:52.931Z,23.73
2023-02-07T21:59:22.438Z,39.17
2023-02-07T22:01:51.299Z,31.67
2023-02-07T22:04:22.766Z,34.13
2023-02-07T22:06:51.319Z,34.28
2023-02-07T22:09:22.056Z,30.40
2023-02-07T22:11:51.631Z,38.28
2023-02-07T22:14:19.930Z,38.38
2023-02-07T22:16:52.089Z,41.17
2023-02-07T22:19:22.979Z,37.28
2023-02-07T22:21:51.951Z,37.70
2023-02-07T22:24:21.578Z,37.53
2023-02-07T22:26:50.237Z,36.85
2023-02-07T22:29:18.513Z,38.13
2023-02-07T22:31:47.485Z,41.40
2023-02-07T22:34:16.093Z,37.67
2023-02-07T22:36:46.675Z,32.88
2023-02-07T22:39:16.683Z,35.53
2023-02-07T22:41:45.573Z,28.70
2023-02-07T22:44:13.862Z,27.33
2023-02-07T22:46:43.497Z,26.48
2023-02-07T22:49:12.278Z,26.20
2023-02-07T22:51:40.844Z,26.33
2023-02-07T22:54:16.369Z,29.45
2023-02-07T22:56:45.969Z,22.48
2023-02-07T23:01:43.870Z,23.13
2023-02-07T23:06:44.807Z,17.25
2023-02-07T23:09:14.830Z,23.60
2023-02-07T23:11:43.318Z,25.17
2023-02-07T23:14:11.935Z,21.33
2023-02-07T23:16:41.101Z,21.88
2023-02-07T23:19:12.473Z,18.98
2023-02-07T23:21:41.363Z,20.35
2023-02-07T23:24:10.780Z,20.27
2023-02-07T23:26:40.799Z,17.83
2023-02-07T23:29:08.991Z,17.27
2023-02-07T23:31:37.513Z,19.13
2023-02-07T23:34:09.465Z,14.45
2023-02-07T23:36:38.653Z,13.50
2023-02-07T23:39:07.563Z,16.02
2023-02-07T23:41:36.210Z,11.40
2023-02-07T23:44:06.690Z,17.08
2023-02-07T23:46:36.407Z,14.82
2023-02-07T23:51:33.675Z,18.83
2023-02-07T23:54:02.161Z,11.00
2023-02-07T23:56:30.856Z,16.05
2023-02-07T23:58:59.456Z,8.98
